Time;durP1;ratioP1;P1;durP2;ratioP2;P2;SDS_P1;SDS_P2;PMS_P1;PMS_P2;Temp;Humidity;BMP_temperature;BMP_pressure;BME280_temperature;BME280_humidity;BME280_pressure;Samples;Min_cycle;Max_cycle;Signal;HPM_P1;HPM_P2
2022/05/14 00:01:50;;;;;;;;;;;;;;;28.32;24.53;100503.53;5076447;28;994;-42
2022/05/14 00:04:16;;;;;;;;;;;;;;;28.29;24.50;100501.22;5076718;28;770;-42
2022/05/14 00:06:41;;;;;;;;;;;;;;;28.23;24.46;100508.25;5076513;28;795;-43
2022/05/14 00:09:06;;;;;;;;;;;;;;;28.28;24.56;100510.34;5079177;28;777;-42
2022/05/14 00:14:16;;;;;;;;;;;;;;;28.28;24.72;100498.72;5080371;28;677;-42
2022/05/14 00:16:41;;;;;;;;;;;;;;;28.26;24.74;100496.19;5079881;28;1038;-42
2022/05/14 00:19:07;;;;;;;;;;;;;;;28.27;24.80;100497.88;5080016;28;1902;-43
2022/05/14 00:21:32;;;;;;;;;;;;;;;28.36;24.49;100494.00;5080134;28;886;-43
2022/05/14 00:23:58;;;;;;;;;;;;;;;28.34;24.67;100492.53;5079845;28;907;-42
2022/05/14 00:26:23;;;;;;;;;;;;;;;28.33;24.52;100494.41;5079905;28;1079;-42
2022/05/14 00:28:49;;;;;;;;;;;;;;;28.34;24.63;100481.72;5079708;28;876;-43
2022/05/14 00:31:14;;;;;;;;;;;;;;;28.39;24.56;100484.69;5079851;28;994;-43
2022/05/14 00:33:39;;;;;;;;;;;;;;;28.31;24.86;100485.63;5079842;28;845;-42
2022/05/14 00:36:05;;;;;;;;;;;;;;;28.34;24.68;100485.25;5079989;28;856;-42
2022/05/14 00:38:30;;;;;;;;;;;;;;;28.39;24.96;100486.53;5079917;28;1961;-42
2022/05/14 00:40:56;;;;;;;;;;;;;;;28.43;24.97;100472.41;5079422;28;911;-42
2022/05/14 00:43:22;;;;;;;;;;;;;;;28.42;24.37;100478.03;5080274;28;794;-42
2022/05/14 00:45:50;;;;;;;;;;;;;;;28.35;24.57;100473.41;5079821;28;1013;-42
2022/05/14 00:48:15;;;;;;;;;;;;;;;28.33;24.75;100466.50;5061846;28;782;-42
2022/05/14 00:50:47;;;;;;;;;;;;;;;28.33;24.79;100472.75;5079363;28;880;-40
2022/05/14 00:53:15;;;;;;;;;;;;;;;28.35;24.96;100470.72;5061913;28;766;-42
2022/05/14 00:55:40;;;;;;;;;;;;;;;28.33;24.69;100477.34;5079728;28;1025;-42
2022/05/14 00:58:06;;;;;;;;;;;;;;;28.32;24.82;100472.94;5061419;28;1894;-42
2022/05/14 01:00:32;;;;;;;;;;;;;;;28.35;24.63;100472.56;5061783;28;991;-43
2022/05/14 01:02:57;;;;;;;;;;;;;;;28.36;24.80;100471.56;5078992;28;876;-42
2022/05/14 01:05:23;;;;;;;;;;;;;;;28.31;24.54;100466.69;5079726;28;897;-42
2022/05/14 01:07:49;;;;;;;;;;;;;;;28.38;24.52;100466.75;5061252;28;845;-42
2022/05/14 01:10:16;;;;;;;;;;;;;;;28.37;24.63;100467.81;5079100;28;797;-42
2022/05/14 01:12:43;;;;;;;;;;;;;;;28.38;24.83;100463.22;5079362;28;1207;-42
2022/05/14 01:15:13;;;;;;;;;;;;;;;28.34;24.53;100460.91;5060841;28;942;-42
2022/05/14 01:17:38;;;;;;;;;;;;;;;28.36;24.86;100463.44;5079136;28;805;-41
2022/05/14 01:20:04;;;;;;;;;;;;;;;28.39;24.71;100460.31;5079158;28;1957;-43
2022/05/14 01:22:34;;;;;;;;;;;;;;;28.36;24.85;100453.44;5078822;28;896;-42
2022/05/14 01:27:49;;;;;;;;;;;;;;;28.33;24.82;100450.28;5063514;28;837;-42
2022/05/14 01:30:15;;;;;;;;;;;;;;;28.41;24.46;100452.00;5078719;28;1010;-43
2022/05/14 01:32:41;;;;;;;;;;;;;;;28.43;24.72;100450.75;5079234;28;733;-42
2022/05/14 01:35:06;;;;;;;;;;;;;;;28.31;24.64;100445.03;5076947;28;869;-43
2022/05/14 01:37:32;;;;;;;;;;;;;;;28.38;24.80;100442.41;5078895;28;837;-42
2022/05/14 01:39:57;;;;;;;;;;;;;;;28.44;24.50;100441.63;5078259;28;1980;-42
2022/05/14 01:42:22;;;;;;;;;;;;;;;28.46;24.78;100436.84;5078789;28;971;-43
2022/05/14 01:44:47;;;;;;;;;;;;;;;28.42;24.82;100432.88;5078583;28;774;-42
2022/05/14 01:47:13;;;;;;;;;;;;;;;28.38;24.88;100433.47;5058619;28;805;-43
2022/05/14 01:49:38;;;;;;;;;;;;;;;28.43;24.64;100430.97;5058089;28;882;-41
2022/05/14 01:52:03;;;;;;;;;;;;;;;28.38;24.58;100430.78;5058968;28;904;-42
2022/05/14 01:54:29;;;;;;;;;;;;;;;28.33;24.65;100431.34;5060628;28;821;-42
2022/05/14 01:56:54;;;;;;;;;;;;;;;28.32;24.77;100426.94;5078406;28;810;-42
2022/05/14 01:59:19;;;;;;;;;;;;;;;28.33;24.90;100432.19;5078558;28;1969;-42
2022/05/14 02:01:45;;;;;;;;;;;;;;;28.31;25.06;100428.00;5078489;28;843;-42
2022/05/14 02:04:12;;;;;;;;;;;;;;;28.29;24.98;100419.25;5077943;28;907;-42
2022/05/14 02:06:37;;;;;;;;;;;;;;;28.31;25.15;100425.28;5077852;28;888;-42
2022/05/14 02:09:03;;;;;;;;;;;;;;;28.21;25.08;100418.34;5078009;28;828;-42
2022/05/14 02:11:28;;;;;;;;;;;;;;;28.33;25.02;100415.13;5078188;28;817;-43
2022/05/14 02:13:53;;;;;;;;;;;;;;;28.32;24.94;100410.72;5078121;28;829;-42
2022/05/14 02:16:19;;;;;;;;;;;;;;;28.30;24.98;100410.91;5077875;28;876;-43
2022/05/14 02:18:44;;;;;;;;;;;;;;;28.44;25.11;100411.03;5077279;28;1906;-42
2022/05/14 02:21:10;;;;;;;;;;;;;;;28.46;24.76;100409.78;5078102;28;745;-42
2022/05/14 02:23:38;;;;;;;;;;;;;;;28.34;24.92;100414.09;5077828;28;867;-41
2022/05/14 02:26:07;;;;;;;;;;;;;;;28.30;25.10;100413.63;5077595;28;1364;-43
2022/05/14 02:28:32;;;;;;;;;;;;;;;28.43;24.88;100410.19;5077625;28;825;-41
2022/05/14 02:30:58;;;;;;;;;;;;;;;28.34;24.98;100411.41;5076733;28;785;-42
2022/05/14 02:33:23;;;;;;;;;;;;;;;28.34;24.73;100404.09;5077403;28;812;-42
2022/05/14 02:35:48;;;;;;;;;;;;;;;28.33;25.10;100402.44;5077636;28;1022;-42
2022/05/14 02:38:15;;;;;;;;;;;;;;;28.43;24.74;100414.75;5077185;28;1910;-42
2022/05/14 02:40:40;;;;;;;;;;;;;;;28.36;24.72;100412.03;5077877;28;797;-43
2022/05/14 02:43:06;;;;;;;;;;;;;;;28.42;24.58;100413.09;5077167;28;1004;-42
2022/05/14 02:45:31;;;;;;;;;;;;;;;28.34;24.90;100409.50;5076715;28;806;-42
2022/05/14 02:47:56;;;;;;;;;;;;;;;28.32;24.98;100411.56;5077132;28;754;-42
2022/05/14 02:50:22;;;;;;;;;;;;;;;28.40;25.21;100398.91;5077261;28;932;-42
2022/05/14 02:52:47;;;;;;;;;;;;;;;28.34;24.81;100411.41;5076834;28;873;-42
2022/05/14 02:55:12;;;;;;;;;;;;;;;28.40;25.17;100407.88;5077504;28;786;-44
2022/05/14 02:57:38;;;;;;;;;;;;;;;28.37;24.90;100405.59;5076885;28;861;-42
2022/05/14 03:00:03;;;;;;;;;;;;;;;28.34;25.21;100411.41;5076427;28;1973;-41
2022/05/14 03:02:29;;;;;;;;;;;;;;;28.46;25.41;100411.66;5077625;28;788;-41
2022/05/14 03:04:54;;;;;;;;;;;;;;;28.42;25.25;100407.69;5077051;28;786;-40
2022/05/14 03:07:19;;;;;;;;;;;;;;;28.44;25.29;100409.16;5076951;28;913;-41
2022/05/14 03:09:45;;;;;;;;;;;;;;;28.03;24.14;100412.63;5077266;28;848;-42
2022/05/14 03:12:11;;;;;;;;;;;;;;;27.28;24.04;100419.25;5076681;28;803;-42
2022/05/14 03:14:36;;;;;;;;;;;;;;;26.83;24.72;100421.00;5076580;28;792;-43
2022/05/14 03:17:02;;;;;;;;;;;;;;;26.76;24.87;100414.69;5076745;28;788;-42
2022/05/14 03:19:27;;;;;;;;;;;;;;;26.69;24.81;100413.78;5076933;28;1894;-42
2022/05/14 03:21:52;;;;;;;;;;;;;;;26.66;25.23;100414.97;5076492;28;879;-42
2022/05/14 03:24:18;;;;;;;;;;;;;;;26.56;25.91;100414.47;5076873;28;754;-42
2022/05/14 03:26:44;;;;;;;;;;;;;;;26.41;26.22;100417.97;5076394;28;1068;-42
2022/05/14 03:29:09;;;;;;;;;;;;;;;26.35;26.17;100418.72;5076307;28;834;-42
2022/05/14 03:31:35;;;;;;;;;;;;;;;26.32;26.38;100419.91;5075942;28;1231;-42
2022/05/14 03:34:00;;;;;;;;;;;;;;;26.13;25.85;100426.69;5076638;28;861;-43
2022/05/14 03:36:25;;;;;;;;;;;;;;;26.16;25.62;100426.31;5065925;28;1422;-44
2022/05/14 03:38:51;;;;;;;;;;;;;;;26.05;26.04;100424.91;5076381;28;1898;-43
2022/05/14 03:41:17;;;;;;;;;;;;;;;25.99;26.08;100425.66;5076575;28;822;-43
2022/05/14 03:43:44;;;;;;;;;;;;;;;26.12;26.43;100427.72;5075283;28;841;-42
2022/05/14 03:46:10;;;;;;;;;;;;;;;25.64;26.99;100423.44;5075792;28;1049;-43
2022/05/14 03:48:36;;;;;;;;;;;;;;;25.51;27.03;100430.22;5073199;28;1530;-43
2022/05/14 03:51:01;;;;;;;;;;;;;;;25.63;27.11;100427.97;5072229;28;1417;-42
2022/05/14 03:53:27;;;;;;;;;;;;;;;25.85;27.22;100428.13;5075194;28;1271;-42
2022/05/14 03:55:52;;;;;;;;;;;;;;;25.63;26.83;100425.28;5075347;28;802;-37
2022/05/14 03:58:18;;;;;;;;;;;;;;;25.07;27.89;100429.00;5075457;28;1961;-39
2022/05/14 04:00:43;;;;;;;;;;;;;;;24.59;28.44;100429.84;5075567;28;967;-41
2022/05/14 04:03:09;;;;;;;;;;;;;;;24.09;29.46;100429.94;5075152;28;817;-38
2022/05/14 04:05:35;;;;;;;;;;;;;;;23.83;30.38;100439.88;5076292;28;801;-37
2022/05/14 04:08:00;;;;;;;;;;;;;;;23.31;31.88;100447.19;5076045;28;763;-37
2022/05/14 04:10:25;;;;;;;;;;;;;;;24.04;30.93;100448.44;5076510;28;773;-43
2022/05/14 04:12:51;;;;;;;;;;;;;;;24.30;30.24;100445.56;5076184;28;900;-43
2022/05/14 04:15:16;;;;;;;;;;;;;;;23.34;31.50;100443.31;5075992;28;998;-42
2022/05/14 04:17:42;;;;;;;;;;;;;;;23.65;30.88;100440.06;5073969;28;1776;-42
2022/05/14 04:20:07;;;;;;;;;;;;;;;24.28;29.50;100439.53;5076198;28;1902;-42
2022/05/14 04:22:33;;;;;;;;;;;;;;;23.17;31.28;100440.59;5076006;28;889;-41
2022/05/14 04:24:58;;;;;;;;;;;;;;;23.52;31.62;100450.44;5076092;28;763;-44
2022/05/14 04:27:23;;;;;;;;;;;;;;;24.05;30.45;100445.59;5075737;28;1147;-43
2022/05/14 04:29:48;;;;;;;;;;;;;;;23.28;32.30;100443.97;5075813;28;1025;-41
2022/05/14 04:32:14;;;;;;;;;;;;;;;22.94;33.13;100451.94;5075955;28;714;-43
2022/05/14 04:34:39;;;;;;;;;;;;;;;23.78;32.10;100439.53;5076509;28;797;-41
2022/05/14 04:37:05;;;;;;;;;;;;;;;23.40;30.67;100350.59;5075694;28;917;-43
2022/05/14 04:39:33;;;;;;;;;;;;;;;22.78;33.94;100444.69;5075845;28;1963;-43
2022/05/14 04:42:01;;;;;;;;;;;;;;;23.41;31.24;100440.84;5075831;28;856;-41
2022/05/14 04:44:27;;;;;;;;;;;;;;;24.07;30.94;100434.66;5075820;28;796;-40
2022/05/14 04:46:53;;;;;;;;;;;;;;;22.96;33.04;100438.38;5076020;28;1034;-42
2022/05/14 04:49:18;;;;;;;;;;;;;;;23.29;33.03;100443.81;5076508;28;832;-43
2022/05/14 04:51:43;;;;;;;;;;;;;;;24.05;31.79;100437.53;5075018;28;891;-42
2022/05/14 04:54:09;;;;;;;;;;;;;;;23.25;33.27;100447.84;5077000;28;757;-43
2022/05/14 04:56:34;;;;;;;;;;;;;;;22.49;34.96;100441.31;5079625;28;913;-41
2022/05/14 04:58:59;;;;;;;;;;;;;;;23.34;33.25;100444.16;5079020;28;1897;-43
2022/05/14 05:01:24;;;;;;;;;;;;;;;23.85;30.79;100445.09;5079517;28;987;-42
2022/05/14 05:03:50;;;;;;;;;;;;;;;22.56;34.80;100452.25;5077900;28;1431;-42
2022/05/14 05:06:18;;;;;;;;;;;;;;;22.97;34.54;100453.47;5078881;28;913;-43
2022/05/14 05:08:43;;;;;;;;;;;;;;;23.73;32.86;100445.44;5079311;28;797;-41
2022/05/14 05:11:09;;;;;;;;;;;;;;;22.87;34.57;100450.94;5070823;28;1309;-40
2022/05/14 05:13:35;;;;;;;;;;;;;;;22.70;35.43;100458.03;5058902;28;815;-41
2022/05/14 05:16:00;;;;;;;;;;;;;;;23.60;33.94;100448.63;5069573;28;1544;-40
2022/05/14 05:18:26;;;;;;;;;;;;;;;23.33;33.97;100455.91;5075835;28;1928;-41
2022/05/14 05:20:52;;;;;;;;;;;;;;;22.66;35.77;100452.16;5077835;28;1211;-39
2022/05/14 05:23:18;;;;;;;;;;;;;;;23.48;33.70;100452.63;5060962;28;1089;-41
2022/05/14 05:25:43;;;;;;;;;;;;;;;23.66;33.19;100449.78;5079020;28;1083;-41
2022/05/14 05:28:09;;;;;;;;;;;;;;;22.42;36.12;100455.53;5078840;28;819;-41
2022/05/14 05:30:34;;;;;;;;;;;;;;;23.28;34.46;100462.78;5077253;28;1072;-40
2022/05/14 05:32:59;;;;;;;;;;;;;;;23.75;32.03;100453.31;5078729;28;1207;-41
2022/05/14 05:35:25;;;;;;;;;;;;;;;22.26;36.43;100455.25;5070421;28;1211;-40
2022/05/14 05:37:50;;;;;;;;;;;;;;;22.03;37.75;100465.66;5078563;28;806;-36
2022/05/14 05:40:16;;;;;;;;;;;;;;;23.15;34.46;100465.94;5072505;28;1914;-40
2022/05/14 05:42:41;;;;;;;;;;;;;;;23.55;33.60;100466.22;5078413;28;887;-40
2022/05/14 05:45:07;;;;;;;;;;;;;;;22.20;36.16;100463.09;5078418;28;994;-41
2022/05/14 05:47:32;;;;;;;;;;;;;;;22.79;35.05;100475.84;5078306;28;819;-39
2022/05/14 05:49:57;;;;;;;;;;;;;;;23.14;33.69;100480.34;5078466;28;944;-40
2022/05/14 05:52:23;;;;;;;;;;;;;;;22.13;36.18;100479.78;5078743;28;781;-39
2022/05/14 05:57:36;;;;;;;;;;;;;;;23.62;33.76;100483.34;5078397;28;611;-41
2022/05/14 06:00:04;;;;;;;;;;;;;;;22.68;35.32;100486.84;5078464;28;1963;-41
2022/05/14 06:02:29;;;;;;;;;;;;;;;22.62;35.71;100486.47;5061604;28;1185;-43
2022/05/14 06:04:54;;;;;;;;;;;;;;;23.60;33.50;100494.25;5063087;28;1228;-42
2022/05/14 06:07:20;;;;;;;;;;;;;;;23.37;34.00;100494.00;5068464;28;1309;-42
2022/05/14 06:09:46;;;;;;;;;;;;;;;22.53;37.26;100487.41;5077528;28;1321;-37
2022/05/14 06:12:12;;;;;;;;;;;;;;;23.52;34.16;100490.72;5077930;28;810;-38
2022/05/14 06:14:37;;;;;;;;;;;;;;;23.80;32.90;100483.19;5077870;28;804;-41
2022/05/14 06:17:02;;;;;;;;;;;;;;;22.43;37.43;100484.84;5078104;28;1029;-40
2022/05/14 06:19:28;;;;;;;;;;;;;;;23.28;34.53;100482.41;5077875;28;1907;-43
2022/05/14 06:21:53;;;;;;;;;;;;;;;24.08;33.01;100476.63;5078271;28;897;-41
2022/05/14 06:24:18;;;;;;;;;;;;;;;24.57;32.37;100485.66;5078195;28;777;-42
2022/05/14 06:26:44;;;;;;;;;;;;;;;24.94;31.73;100491.47;5077683;28;1187;-42
2022/05/14 06:29:09;;;;;;;;;;;;;;;25.17;31.57;100479.91;5077282;28;889;-42
2022/05/14 06:31:34;;;;;;;;;;;;;;;25.31;31.71;100479.16;5077869;28;994;-43
2022/05/14 06:34:00;;;;;;;;;;;;;;;25.26;30.78;100480.69;5077578;28;840;-43
2022/05/14 06:36:25;;;;;;;;;;;;;;;24.74;32.82;100482.94;5077790;28;851;-41
2022/05/14 06:38:50;;;;;;;;;;;;;;;25.16;32.50;100486.28;5077616;28;1957;-40
2022/05/14 06:41:16;;;;;;;;;;;;;;;25.22;31.75;100480.22;5077532;28;900;-39
2022/05/14 06:43:41;;;;;;;;;;;;;;;25.39;31.36;100486.34;5077283;28;751;-40
2022/05/14 06:46:07;;;;;;;;;;;;;;;24.78;32.90;100479.72;5077026;28;860;-37
2022/05/14 06:48:32;;;;;;;;;;;;;;;25.12;32.11;100471.53;5077604;28;840;-39
2022/05/14 06:51:01;;;;;;;;;;;;;;;25.19;30.48;100472.50;5077231;28;833;-42
2022/05/14 06:53:27;;;;;;;;;;;;;;;25.46;30.72;100461.41;5077639;28;758;-40
2022/05/14 06:55:53;;;;;;;;;;;;;;;25.07;35.19;100464.81;5059860;28;1074;-38
2022/05/14 06:58:19;;;;;;;;;;;;;;;25.24;32.80;100458.50;5076549;28;1947;-42
2022/05/14 07:00:44;;;;;;;;;;;;;;;25.52;32.46;100461.53;5074606;28;1128;-42
2022/05/14 07:08:37;;;;;;;;;;;;;;;25.25;33.31;100463.72;5057221;28;632;-43
2022/05/14 07:11:03;;;;;;;;;;;;;;;25.67;32.56;100469.69;5063498;28;904;-42
2022/05/14 07:13:28;;;;;;;;;;;;;;;25.79;32.58;100461.19;5076874;28;806;-43
2022/05/14 07:15:53;;;;;;;;;;;;;;;25.17;34.22;100466.47;5076936;28;1050;-43
2022/05/14 07:18:19;;;;;;;;;;;;;;;25.29;33.42;100459.66;5076863;28;1949;-41
2022/05/14 07:20:44;;;;;;;;;;;;;;;25.69;33.52;100461.44;5076158;28;1247;-39
2022/05/14 07:23:09;;;;;;;;;;;;;;;25.17;36.03;100459.19;5074105;28;1361;-43
2022/05/14 07:25:35;;;;;;;;;;;;;;;25.55;34.28;100463.03;5076340;28;1078;-42
2022/05/14 07:28:00;;;;;;;;;;;;;;;25.61;33.35;100458.78;5076920;28;765;-42
2022/05/14 07:30:25;;;;;;;;;;;;;;;25.08;35.22;100465.66;5074700;28;880;-42
2022/05/14 07:32:51;;;;;;;;;;;;;;;25.64;33.95;100466.53;5076423;28;844;-42
2022/05/14 07:35:16;;;;;;;;;;;;;;;25.19;35.44;100465.25;5076684;28;842;-42
2022/05/14 07:37:43;;;;;;;;;;;;;;;25.31;35.24;100468.38;5076215;28;904;-43
2022/05/14 07:40:10;;;;;;;;;;;;;;;25.68;34.30;100470.53;5076609;28;1917;-43
2022/05/14 07:42:37;;;;;;;;;;;;;;;25.37;35.80;100464.16;5076641;28;818;-43
2022/05/14 07:45:03;;;;;;;;;;;;;;;25.84;34.89;100457.94;5076620;28;967;-42
2022/05/14 07:47:28;;;;;;;;;;;;;;;24.83;37.04;100465.75;5076426;28;758;-41
2022/05/14 07:49:54;;;;;;;;;;;;;;;25.23;36.43;100463.06;5076074;28;900;-43
2022/05/14 07:52:19;;;;;;;;;;;;;;;25.36;35.57;100470.53;5076761;28;833;-43
2022/05/14 07:54:45;;;;;;;;;;;;;;;25.16;35.90;100465.59;5076493;28;837;-40
2022/05/14 07:57:10;;;;;;;;;;;;;;;25.82;35.02;100466.22;5076408;28;794;-44
2022/05/14 07:59:35;;;;;;;;;;;;;;;24.89;36.24;100472.28;5058253;28;1898;-42
2022/05/14 08:02:02;;;;;;;;;;;;;;;25.38;35.82;100473.06;5075247;28;989;-40
2022/05/14 08:04:27;;;;;;;;;;;;;;;25.23;35.74;100471.13;5076364;28;821;-41
2022/05/14 08:06:52;;;;;;;;;;;;;;;25.36;35.54;100469.72;5076545;28;782;-40
2022/05/14 08:09:17;;;;;;;;;;;;;;;25.62;35.06;100473.91;5076019;28;845;-42
2022/05/14 08:11:43;;;;;;;;;;;;;;;25.03;38.75;100473.41;5076308;28;833;-41
2022/05/14 08:14:08;;;;;;;;;;;;;;;25.64;35.70;100469.22;5076028;28;837;-40
2022/05/14 08:16:33;;;;;;;;;;;;;;;25.33;36.04;100473.59;5076217;28;1011;-40
2022/05/14 08:19:00;;;;;;;;;;;;;;;24.89;38.92;100472.28;5075915;28;1890;-42
2022/05/14 08:26:53;;;;;;;;;;;;;;;25.68;35.68;100482.16;5074777;28;1299;-41
2022/05/14 08:29:19;;;;;;;;;;;;;;;25.31;36.41;100475.63;5076832;28;830;-42
2022/05/14 08:31:44;;;;;;;;;;;;;;;25.09;37.46;100477.28;5080088;28;978;-42
2022/05/14 08:34:09;;;;;;;;;;;;;;;25.92;34.72;100479.44;5078841;28;1294;-41
2022/05/14 08:36:35;;;;;;;;;;;;;;;24.63;38.96;100481.44;5065080;28;801;-40
2022/05/14 08:39:00;;;;;;;;;;;;;;;25.33;36.38;100487.06;5060169;28;1902;-41
2022/05/14 08:41:25;;;;;;;;;;;;;;;25.15;36.48;100488.16;5076387;28;955;-41
2022/05/14 08:43:54;;;;;;;;;;;;;;;24.74;39.19;100491.00;5079639;28;750;-40
2022/05/14 08:46:21;;;;;;;;;;;;;;;25.51;36.44;100491.31;5061270;28;994;-42
2022/05/14 08:48:50;;;;;;;;;;;;;;;25.82;35.54;100492.31;5079648;28;784;-42
2022/05/14 08:51:19;;;;;;;;;;;;;;;25.42;36.06;100496.75;5080028;28;829;-41
2022/05/14 08:53:45;;;;;;;;;;;;;;;24.83;37.32;100495.34;5079537;28;907;-40
2022/05/14 08:56:36;;;;;;;;;;;;;;;24.88;36.86;100501.03;5079382;28;794;-41
2022/05/14 08:59:02;;;;;;;;;;;;;;;25.31;35.18;100500.69;5062396;28;1963;-42
2022/05/14 09:01:28;;;;;;;;;;;;;;;24.95;37.15;100506.59;5079479;28;1047;-41
2022/05/14 09:03:53;;;;;;;;;;;;;;;25.46;35.31;100504.50;5079355;28;821;-39
2022/05/14 09:06:18;;;;;;;;;;;;;;;24.73;39.24;100514.38;5079324;28;1404;-42
2022/05/14 09:08:44;;;;;;;;;;;;;;;25.32;35.79;100512.31;5078685;28;1207;-39
2022/05/14 09:11:18;;;;;;;;;;;;;;;24.82;39.01;100517.88;5072476;28;1115;-43
2022/05/14 09:13:44;;;;;;;;;;;;;;;25.28;35.74;100517.22;5059793;28;889;-42
2022/05/14 09:16:19;;;;;;;;;;;;;;;24.80;37.77;100514.50;5070430;28;1029;-39
2022/05/14 09:18:45;;;;;;;;;;;;;;;25.26;35.85;100518.38;5078520;28;1878;-41
2022/05/14 09:21:30;;;;;;;;;;;;;;;24.85;36.69;100505.91;5079228;28;845;-43
2022/05/14 09:23:56;;;;;;;;;;;;;;;25.23;36.25;100507.97;5078720;28;1765;-42
2022/05/14 09:26:32;;;;;;;;;;;;;;;24.89;36.61;100509.94;5078778;28;1087;-40
2022/05/14 09:28:59;;;;;;;;;;;;;;;25.23;36.23;100511.50;5077144;28;1259;-41
2022/05/14 09:31:25;;;;;;;;;;;;;;;25.14;36.20;100509.88;5072139;28;1310;-41
2022/05/14 09:33:59;;;;;;;;;;;;;;;24.79;38.10;100510.16;5053363;28;1101;-41
2022/05/14 09:36:24;;;;;;;;;;;;;;;25.46;35.58;100512.56;5070159;28;1247;-43
2022/05/14 09:38:59;;;;;;;;;;;;;;;24.46;40.09;100511.06;5040696;28;1957;-41
2022/05/14 09:41:25;;;;;;;;;;;;;;;25.23;36.78;100506.13;5057456;28;881;-42
2022/05/14 09:43:54;;;;;;;;;;;;;;;24.85;38.14;100508.59;5064907;28;885;-42
2022/05/14 09:46:26;;;;;;;;;;;;;;;24.69;38.81;100504.97;5078411;28;1058;-39
2022/05/14 09:48:53;;;;;;;;;;;;;;;25.46;36.22;100501.81;5078416;28;834;-42
2022/05/14 09:51:44;;;;;;;;;;;;;;;24.40;39.94;100499.16;5078534;28;761;-41
2022/05/14 09:54:12;;;;;;;;;;;;;;;25.36;37.49;100494.78;5075058;28;1293;-41
2022/05/14 09:56:57;;;;;;;;;;;;;;;24.71;38.50;100494.84;5059569;28;845;-41
2022/05/14 09:59:35;;;;;;;;;;;;;;;24.83;38.44;100498.03;5078433;28;1953;-42
2022/05/14 10:02:20;;;;;;;;;;;;;;;25.28;37.36;100492.13;5077764;28;1006;-41
2022/05/14 10:04:51;;;;;;;;;;;;;;;24.29;41.43;100488.75;5077396;28;1193;-43
2022/05/14 10:07:18;;;;;;;;;;;;;;;25.32;37.96;100485.38;5078219;28;853;-42
2022/05/14 10:09:52;;;;;;;;;;;;;;;24.98;38.65;100490.09;5059644;28;975;-38
2022/05/14 10:12:46;;;;;;;;;;;;;;;24.40;40.15;100476.78;5059822;28;1074;-40
2022/05/14 10:15:19;;;;;;;;;;;;;;;25.00;38.98;100487.22;5006459;28;1366;-41
2022/05/14 10:17:59;;;;;;;;;;;;;;;25.25;37.88;100489.78;5060041;28;1219;-40
2022/05/14 10:20:34;;;;;;;;;;;;;;;24.03;40.46;100482.53;5074841;28;1949;-40
2022/05/14 10:29:07;;;;;;;;;;;;;;;24.31;40.88;100482.19;5064181;28;705;-41
2022/05/14 10:31:35;;;;;;;;;;;;;;;25.48;37.11;100483.59;5076944;28;1092;-41
2022/05/14 10:34:02;;;;;;;;;;;;;;;24.96;37.87;100475.97;5077523;28;911;-41
2022/05/14 10:36:30;;;;;;;;;;;;;;;24.06;40.71;100479.50;5076999;28;1274;-42
2022/05/14 10:38:57;;;;;;;;;;;;;;;25.20;37.95;100476.88;5075547;28;1962;-39
2022/05/14 10:41:26;;;;;;;;;;;;;;;25.33;37.07;100478.13;5059160;28;858;-41
2022/05/14 10:43:56;;;;;;;;;;;;;;;24.22;40.40;100472.47;5059783;28;1477;-41
2022/05/14 10:46:21;;;;;;;;;;;;;;;24.48;40.38;100473.25;5058506;28;1073;-40
2022/05/14 10:48:50;;;;;;;;;;;;;;;25.60;37.21;100466.03;5070424;28;1029;-40
2022/05/14 10:51:19;;;;;;;;;;;;;;;24.72;38.87;100466.97;5053737;28;1093;-41
2022/05/14 10:53:45;;;;;;;;;;;;;;;24.00;40.92;100466.75;5058236;28;919;-38
2022/05/14 10:56:23;;;;;;;;;;;;;;;24.86;38.53;100464.56;5057928;28;1238;-41
2022/05/14 10:58:52;;;;;;;;;;;;;;;25.71;37.79;100461.25;5057860;28;1961;-40
2022/05/14 11:01:31;;;;;;;;;;;;;;;25.05;39.52;100449.88;5071578;28;1053;-38
2022/05/14 11:03:57;;;;;;;;;;;;;;;24.45;40.89;100456.47;5046566;28;1219;-41
2022/05/14 11:06:31;;;;;;;;;;;;;;;24.64;41.75;100461.63;5057553;28;730;-39
2022/05/14 11:08:57;;;;;;;;;;;;;;;24.30;41.61;100374.84;5056881;28;841;-39
2022/05/14 11:11:23;;;;;;;;;;;;;;;24.97;40.84;100452.59;5057731;28;739;-38
2022/05/14 11:13:59;;;;;;;;;;;;;;;24.87;40.88;100458.16;5070712;28;853;-37
2022/05/14 11:16:34;;;;;;;;;;;;;;;24.62;40.76;100463.63;5064922;28;1223;-40
2022/05/14 11:19:00;;;;;;;;;;;;;;;24.83;40.66;100461.19;5057040;28;1957;-38
2022/05/14 11:21:38;;;;;;;;;;;;;;;24.82;40.86;100456.00;5056891;28;799;-38
2022/05/14 11:24:04;;;;;;;;;;;;;;;24.61;41.12;100453.91;5056442;28;794;-40
2022/05/14 11:26:30;;;;;;;;;;;;;;;24.55;41.45;100452.72;5069497;28;1024;-39
2022/05/14 11:29:15;;;;;;;;;;;;;;;24.72;42.62;100447.28;5057424;28;1275;-40
2022/05/14 11:31:51;;;;;;;;;;;;;;;25.83;38.37;100449.03;5075387;28;1251;-38
2022/05/14 11:34:17;;;;;;;;;;;;;;;25.10;39.49;100443.94;5074014;28;1220;-40
2022/05/14 11:36:46;;;;;;;;;;;;;;;24.80;39.80;100444.56;5058283;28;888;-42
2022/05/14 11:39:22;;;;;;;;;;;;;;;24.70;41.47;100442.94;5076347;28;1906;-40
2022/05/14 11:41:49;;;;;;;;;;;;;;;24.32;40.73;100440.03;5057663;28;1383;-41
2022/05/14 11:44:25;;;;;;;;;;;;;;;24.87;40.56;100439.31;5075727;28;1239;-36
2022/05/14 11:46:50;;;;;;;;;;;;;;;26.11;37.45;100437.66;5075984;28;1007;-37
2022/05/14 11:49:27;;;;;;;;;;;;;;;25.18;39.09;100435.81;5076711;28;793;-40
2022/05/14 11:51:52;;;;;;;;;;;;;;;24.05;40.77;100426.78;5076227;28;932;-39
2022/05/14 11:54:20;;;;;;;;;;;;;;;25.14;37.31;100424.56;5075989;28;833;-38
2022/05/14 11:56:59;;;;;;;;;;;;;;;25.58;37.00;100421.41;5059153;28;874;-38
2022/05/14 11:59:25;;;;;;;;;;;;;;;24.89;38.06;100427.38;5058662;28;1894;-40
2022/05/14 12:01:50;;;;;;;;;;;;;;;24.30;39.55;100420.53;5076117;28;998;-38
2022/05/14 12:04:36;;;;;;;;;;;;;;;24.81;37.75;100416.66;5074930;28;881;-38
2022/05/14 12:07:18;;;;;;;;;;;;;;;26.13;34.73;100418.59;5076010;28;1837;-40
2022/05/14 12:09:48;;;;;;;;;;;;;;;24.66;38.22;100411.16;5076041;28;895;-39
2022/05/14 12:12:25;;;;;;;;;;;;;;;24.53;39.20;100411.72;5058603;28;864;-41
2022/05/14 12:14:51;;;;;;;;;;;;;;;24.27;39.88;100421.72;5075892;28;978;-41
2022/05/14 12:17:17;;;;;;;;;;;;;;;25.46;37.33;100412.94;5075661;28;856;-38
2022/05/14 12:19:44;;;;;;;;;;;;;;;25.48;36.10;100411.72;5058355;28;1890;-40
2022/05/14 12:22:15;;;;;;;;;;;;;;;25.28;37.38;100417.59;5076127;28;777;-39
2022/05/14 12:24:41;;;;;;;;;;;;;;;24.67;39.37;100419.06;5075574;28;790;-39
2022/05/14 12:27:16;;;;;;;;;;;;;;;25.75;37.11;100423.00;5057990;28;1287;-40
2022/05/14 12:29:51;;;;;;;;;;;;;;;25.32;37.14;100412.69;5075711;28;841;-41
2022/05/14 12:35:00;;;;;;;;;;;;;;;25.43;34.45;100406.88;5075706;28;611;-40
2022/05/14 12:37:25;;;;;;;;;;;;;;;24.82;36.65;100410.28;5075550;28;972;-42
2022/05/14 12:39:51;;;;;;;;;;;;;;;25.30;32.70;100410.19;5075873;28;1897;-41
2022/05/14 12:42:18;;;;;;;;;;;;;;;24.69;36.02;100403.59;5076116;28;845;-40
2022/05/14 12:44:45;;;;;;;;;;;;;;;25.05;32.67;100407.66;5057502;28;817;-39
2022/05/14 12:47:11;;;;;;;;;;;;;;;25.03;34.19;100409.69;5058268;28;1027;-38
2022/05/14 12:49:43;;;;;;;;;;;;;;;25.28;33.35;100412.22;5076039;28;806;-39
2022/05/14 12:52:09;;;;;;;;;;;;;;;25.05;34.10;100413.03;5075662;28;753;-40
2022/05/14 12:54:35;;;;;;;;;;;;;;;25.09;34.42;100410.00;5075007;28;904;-40
2022/05/14 12:57:01;;;;;;;;;;;;;;;25.62;34.92;100411.97;5075695;28;897;-41
2022/05/14 12:59:26;;;;;;;;;;;;;;;24.80;36.53;100409.59;5057690;28;1894;-38
2022/05/14 13:01:54;;;;;;;;;;;;;;;25.22;36.69;100409.41;5075574;28;1115;-40
2022/05/14 13:04:19;;;;;;;;;;;;;;;25.48;36.34;100398.25;5075659;28;900;-38
2022/05/14 13:06:45;;;;;;;;;;;;;;;24.54;39.01;100400.78;5057075;28;908;-39
2022/05/14 13:09:10;;;;;;;;;;;;;;;24.99;38.53;100405.66;5057618;28;782;-40
2022/05/14 13:11:36;;;;;;;;;;;;;;;25.56;36.94;100398.19;5057784;28;809;-41
2022/05/14 13:14:13;;;;;;;;;;;;;;;24.76;41.00;100389.44;5057636;28;806;-42
2022/05/14 13:16:38;;;;;;;;;;;;;;;25.28;37.10;100400.59;5078252;28;997;-41
2022/05/14 13:19:20;;;;;;;;;;;;;;;24.86;38.06;100395.44;5079447;28;1894;-39
2022/05/14 13:21:49;;;;;;;;;;;;;;;24.62;40.45;100402.63;5058654;28;830;-39